Strona główna
METAR-TAF:

METAR-TAF

Lotnisko :

Vamdrup

Kolding, Dania

Szerokość geograficzna: 55-26N, Długość geograficzna: 009-20E, wysokość: 44 m

Aktualna obserwacja pogody

Raport powstał 36 minut temu, godzina 22:20 UTC
Wiatr 2 kt od wschód
Temperatura 10°C
Wilgotność 87%
Ciśnienie 1027 hPa

METAR: EKVD 302220Z AUTO 08002KT //// ///////// 10/08 Q1027

czas: 00:56 (22:56 UTC)

Prognoza

Raport powstał 13 godziny i 59 minut temu, godzina 08:57 UTC
Prognoza ważna od 30 godzina 09 UTC do 30 godzina 15 UTC
Wiatr 8 kt od północno-północny wschód
Widzialność 10 km lub więcej
Mało chmury na wysokości 4000 ft

TAF: EKVD 300857Z 3009/3015 02008KT 9999 FEW040

Obserwacja i prognoza pogody dla ponad 4000 lotnisk (raport METAR i TAF).

Dostępne stacje oznaczono żółtymi i czerwonymi punktami na mapie.

Najedź kursorem aby zobaczyć nazwę stacji.

Kliknij aby zobaczyć obserwacje i prognozy pogody.

Aby zmienić mapę: kliknij na zielony przycisk z czarnym krzyżykiem, aby powiększyć; na zielony przycisk z myślnikiem, aby pomniejszyć; na zielone strzałki, aby przejść do map sąsiednich.


METAR-TAF: